Flight Track Log - Related Links

Times and Time Zones

All times are in EDT time to prevent confusion due to time zone crossing. See the FLG3726 flight status page for this flight to view local times or setup timezone preferences in your user account.


Time Position Orientation Groundspeed Altitude Reporting Facility
EDT Latitude Longitude Course Direction KTS MPH feet Rate Location/Type
Sun 06:01:55 PM 35.0333 -89.9667 180° South 161 185 1,000  Level KMEM
Sun 06:02:25 PM 35.0000 -89.9667 180° South 155 178 1,900 1,600 Climbing KMEM
Sun 06:03:25 PM 34.9500 -89.9500 165° South 243 280 3,400 2,250 Climbing KMEM
Sun 06:04:25 PM 34.9333 -89.8667 104° East 292 336 6,400 2,700 Climbing KMEM
Sun 06:05:25 PM 34.9500 -89.7833 76° East 314 361 8,800 2,093 Climbing KMEM
Sun 06:06:34 PM 35.0497 -89.7533 14° North 308 354 10,900 1,860 Climbing Memphis Center
Sun 06:07:34 PM 35.1497 -89.7578 358° North 330 380 12,800 2,000 Climbing Memphis Center
Sun 06:08:34 PM 35.2478 -89.7647 357° North 355 409 14,900 1,900 Climbing Memphis Center
Sun 06:09:34 PM 35.3478 -89.7436 10° North 360 414 16,600 1,450 Climbing Memphis Center
Sun 06:10:34 PM 35.4353 -89.6742 33° Northeast 361 415 17,800 1,250 Climbing Memphis Center
Sun 06:11:34 PM 35.5286 -89.6044 31° Northeast 377 434 19,100 1,200 Climbing Memphis Center
Sun 06:12:34 PM 35.6242 -89.5372 30° Northeast 388 447 20,200 1,300 Climbing Memphis Center
Sun 06:13:34 PM 35.7133 -89.4672 33° Northeast 389 448 21,700 1,250 Climbing Memphis Center
Sun 06:14:34 PM 35.8086 -89.3944 32° Northeast 389 448 22,700 950 Climbing Memphis Center
Sun 06:15:34 PM 35.9042 -89.3242 31° Northeast 389 448 23,600 800 Climbing Memphis Center
Sun 06:16:34 PM 36.0014 -89.2486 32° Northeast 394 453 24,300 700 Climbing Memphis Center
Sun 06:17:34 PM 36.1008 -89.1753 31° Northeast 405 466 25,000 350 Climbing Memphis Center
Sun 06:18:34 PM 36.1961 -89.1019 32° Northeast 424 488 25,000  Level Memphis Center
Sun 06:19:34 PM 36.3056 -89.0203 31° Northeast 436 502 25,000  Level Memphis Center
Sun 06:20:34 PM 36.4111 -88.9414 31° Northeast 436 502 25,000  Level Memphis Center
Sun 06:21:34 PM 36.5164 -88.8619 31° Northeast 441 507 25,000  Level Memphis Center
Sun 06:22:34 PM 36.6217 -88.7825 31° Northeast 441 507 25,000  Level Memphis Center
Sun 06:23:34 PM 36.7269 -88.7028 31° Northeast 441 507 25,000  Level Memphis Center
Sun 06:24:34 PM 36.8322 -88.6228 31° Northeast 441 507 25,000  Level Memphis Center
Sun 06:25:34 PM 36.9372 -88.5400 32° Northeast 441 507 25,000  Level Memphis Center
Sun 06:26:34 PM 37.0444 -88.4597 31° Northeast 441 507 25,000  Level Memphis Center
Sun 06:27:34 PM 37.1494 -88.3792 31° Northeast 441 507 25,000  Level Memphis Center
Sun 06:28:34 PM 37.2544 -88.2983 31° Northeast 441 507 25,000  Level Memphis Center
Sun 06:29:41 PM 37.3753 -88.1989 33° Northeast 444 511 25,000  Level Indianapolis Center
Sun 06:30:43 PM 37.4828 -88.1153 32° Northeast 447 514 25,000  Level Indianapolis Center
Sun 06:31:45 PM 37.5897 -88.0303 32° Northeast 447 514 25,000  Level Indianapolis Center
Sun 06:32:47 PM 37.6967 -87.9456 32° Northeast 449 517 25,000  Level Indianapolis Center
Sun 06:33:50 PM 37.8197 -87.8481 32° Northeast 450 518 25,000 -193 Level Indianapolis Center
Sun 06:35:00 PM 37.9139 -87.7528 39° Northeast  Level FlightAware Approximate
Sun 06:35:54 PM 37.9758 -87.6106 39° Northeast 454 522 24,400  Level Indianapolis Center
Sun 06:36:56 PM 38.0219 -87.4672 68° East 443 510 24,000 -194 Descending Indianapolis Center
Sun 06:37:58 PM 38.0664 -87.3244 68° East 439 505 24,000  Level Indianapolis Center
Sun 06:39:00 PM 38.1131 -87.1786 68° East 445 512 24,000  Level Indianapolis Center
Sun 06:40:02 PM 38.1669 -87.0050 68° East 449 517 24,000 -97 Level Indianapolis Center
Sun 06:41:04 PM 38.2117 -86.8611 68° East 446 513 23,800 -726 Descending Indianapolis Center
Sun 06:42:06 PM 38.2556 -86.7181 69° East 441 507 22,500 -1,355 Descending Indianapolis Center
Sun 06:43:08 PM 38.3014 -86.5717 68° East 443 510 21,000 -726 Descending Indianapolis Center
Sun 06:44:10 PM 38.3489 -86.4203 68° East 457 526 21,000 -339 Level Indianapolis Center
Sun 06:45:12 PM 38.4056 -86.2372 68° East 461 531 20,300 -823 Descending Indianapolis Center
Sun 06:46:14 PM 38.4514 -86.0875 69° East 456 525 19,300 -1,403 Descending Indianapolis Center
Sun 06:47:16 PM 38.5036 -85.9417 65° Northeast 452 520 17,400 -1,887 Descending Indianapolis Center
Sun 06:48:18 PM 38.5514 -85.8008 67° East 435 501 15,400 -1,984 Descending Indianapolis Center
Sun 06:49:20 PM 38.5992 -85.6669 65° Northeast 417 480 13,300 -2,081 Descending Indianapolis Center
Sun 06:50:22 PM 38.6497 -85.5189 66° East 409 471 11,100 -1,104 Descending Indianapolis Center
Sun 06:51:25 PM 38.7008 -85.3939 62° Northeast 400 460 11,000 -48 Descending Indianapolis Center
Sun 06:52:27 PM 38.7564 -85.2731 59° Northeast 397 457 11,000  Level Indianapolis Center
Sun 06:53:29 PM 38.8122 -85.1514 59° Northeast 397 457 11,000  Level Indianapolis Center
Sun 06:54:31 PM 38.8681 -85.0322 59° Northeast 395 455 11,000 -532 Level Indianapolis Center
Sun 06:55:33 PM 38.9197 -84.9169 60° Northeast 315 362 9,900 -1,046 Descending Indianapolis Center
Sun 06:56:20 PM 38.9500 -84.8500 60° Northeast 284 327 9,100 -673 Descending Cincinnati TRACON
Sun 06:57:20 PM 38.9833 -84.7667 63° Northeast 260 299 8,700 -950 Descending Cincinnati TRACON
Sun 06:58:20 PM 39.0500 -84.7500 11° North 220 253 7,200 -1,700 Descending Cincinnati TRACON
Sun 06:59:20 PM 39.1167 -84.7667 349° North 220 253 5,300 -1,850 Descending Cincinnati TRACON
Sun 07:00:20 PM 39.1667 -84.7833 346° North 221 254 3,500 -1,095 Descending Cincinnati TRACON
Sun 07:01:26 PM 39.2333 -84.7667 11° North 191 220 3,000 -238 Descending Cincinnati TRACON
Sun 07:02:26 PM 39.2333 -84.7167 90° East 180 207 3,000  Level Cincinnati TRACON
Sun 07:03:20 PM 39.2000 -84.6833 142° Southeast 174 200 3,000 -157 Level Cincinnati TRACON
Sun 07:04:21 PM 39.1667 -84.6667 159° South 164 189 2,700 -550 Descending Cincinnati TRACON
Sun 07:05:20 PM 39.1167 -84.6667 180° South 138 159 1,900 -756 Descending Cincinnati TRACON
Sun 07:06:20 PM 39.0833 -84.6667 180° South 130 150 1,200 -700 Descending Cincinnati TRACON

Login

Don't have an account? Register now (free) for customized features, flight alerts, and more!